KDSV

Dansville Municipal Airport

Dansville, New York, USA
METAR KDSV 191654Z AUTO 34003KT 1 1/4SM -SN BKN023 BKN030 OVC038 M07/M10 A3018 RMK AO2 SLP238 P0000 T10721100
Observed Flight Rules
Jan-19 @ 16:54 UTC (22 minutes ago) Instrument Flight Rules
Wind Visibility Clouds Conditions
340° at 3 knots 1 1/4 miles
  • Broken at 2,300' AGL
  • Broken at 3,000' AGL
  • Overcast at 3,800' AGL
  • Light Snow
Temperatures Readings Precipitation
Current -7°C / 19°F
Dewpoint -10°C / 14°F
Humidity 79%
Altimeter 30.18" Hg
Pressure 1023.8 hPa
Elevation 198
Current Rain 0.01
METAR KDSV 191654Z AUTO 34003KT 1 1/4SM -SN BKN023 BKN030 OVC038 M07/M10 A3018 RMK AO2 SLP238 P0000 T10721100
Observed Flight Rules
Jan-19 @ 16:54 UTC
(22 minutes ago)
IFR
Wind Visibility
340° at 3 knots 1 1/4 miles
Clouds
  • Broken at 2,300' AGL
  • Broken at 3,000' AGL
  • Overcast at 3,800' AGL
Conditions
  • Light Snow
Temperature Dewpoint
-7°C / 19°F -10°C / 14°F
Humidity Altimeter Pressure
79% 30.18" Hg 1023.8 hPa
Current Rain
0.01